| time (UTC) | temp C | wind direction | speed KPH | gust KPH | rain 1hr cm | rain 24hr cm | rain mn cm | humidity % | barometer mb |
| 20260906123103 | 22 | 190 | 0.0 | 0.0 | 0.00 | 1.30 | 0.03 | 99 | 1013.9 |
| 20260906121529 | 22 | 190 | 0.0 | 0.0 | 0.00 | 1.30 | 0.03 | 99 | 1013.9 |
| 20260906120027 | -17 | 0.0 | 0.0 | 0.00 | 1.30 | 0.03 | 1014.0 | ||
| 20260906114521 | -17 | 0.0 | 0.0 | 0.00 | 1.30 | 0.03 | 1014.1 | ||
| 20260906113017 | -17 | 0.0 | 0.0 | 0.00 | 1.30 | 0.03 | 1013.8 | ||
| 20260906111523 | -17 | 0.0 | 0.0 | 0.00 | 1.30 | 0.03 | 1013.5 | ||
| 20260906110007 | -17 | 0.0 | 0.0 | 0.00 | 1.30 | 0.03 | 1013.5 | ||
| 20260906104502 | -17 | 0.0 | 0.0 | 0.00 | 1.30 | 0.03 | 1013.2 | ||
| 20260906103059 | -17 | 0.0 | 0.0 | 0.00 | 1.30 | 0.03 | 1013.2 | ||
| 20260906101554 | -17 | 0.0 | 0.0 | 0.00 | 1.30 | 0.03 | 1012.9 | ||
| 20260906100049 | -17 | 0.0 | 0.0 | 0.00 | 1.30 | 0.03 | 1012.7 | ||
| 20260906094547 | -17 | 0.0 | 0.0 | 0.00 | 1.30 | 0.03 | 1012.7 | ||
| 20260906093046 | -17 | 0.0 | 0.0 | 0.00 | 1.30 | 0.03 | 1012.3 | ||
| 20260906091555 | -17 | 190 | 0.0 | 0.0 | 0.00 | 1.30 | 0.03 | 1012.2 | |
| 20260906090036 | 21 | 190 | 0.0 | 0.0 | 0.00 | 1.30 | 0.03 | 99 | 1012.0 |
| 20260906084535 | 21 | 190 | 0.0 | 0.0 | 0.00 | 1.30 | 0.03 | 99 | 1011.8 |
| 20260906083036 | 21 | 190 | 0.0 | 0.0 | 0.00 | 1.30 | 0.03 | 99 | 1011.9 |
| 20260906081535 | 21 | 190 | 0.0 | 0.0 | 0.00 | 1.30 | 0.03 | 99 | 1011.9 |
| 20260906080035 | 21 | 190 | 0.0 | 0.0 | 0.00 | 1.30 | 0.03 | 99 | 1011.6 |
| 20260906074531 | 21 | 190 | 0.0 | 0.0 | 0.03 | 1.30 | 0.03 | 99 | 1011.6 |
| 20260906073029 | 21 | 190 | 0.0 | 0.0 | 0.03 | 1.30 | 0.03 | 99 | 1011.4 |
| 20260906071529 | 21 | 190 | 0.0 | 0.0 | 0.03 | 1.30 | 0.03 | 99 | 1011.3 |
| 20260906070027 | 22 | 190 | 0.0 | 0.0 | 0.03 | 1.30 | 0.03 | 99 | 1011.4 |
| 20260906064526 | 22 | 190 | 0.0 | 0.0 | 0.00 | 1.27 | 0.00 | 99 | 1011.6 |
| 20260906063027 | 22 | 190 | 0.0 | 0.0 | 0.00 | 1.27 | 0.00 | 99 | 1011.5 |
| 20260906061525 | 22 | 190 | 0.0 | 0.0 | 0.00 | 1.27 | 0.00 | 99 | 1011.5 |
| 20260906060022 | 22 | 190 | 0.0 | 0.0 | 0.00 | 1.27 | 0.00 | 99 | 1011.6 |
| 20260906054521 | 22 | 190 | 0.0 | 0.0 | 0.00 | 1.27 | 0.00 | 98 | 1011.7 |
| 20260906053020 | 22 | 190 | 0.0 | 0.0 | 0.00 | 1.27 | 0.00 | 99 | 1011.9 |
| 20260906051518 | 22 | 190 | 0.0 | 0.0 | 0.00 | 1.27 | 0.00 | 99 | 1012.0 |
| 20260906050018 | 22 | 190 | 0.0 | 0.0 | 0.00 | 1.27 | 0.00 | 99 | 1012.2 |
| 20260906044516 | 22 | 190 | 0.0 | 0.0 | 0.00 | 1.27 | 0.00 | 98 | 1012.3 |
| 20260906043027 | 22 | 190 | 0.0 | 0.0 | 0.00 | 1.27 | 0.00 | 99 | 1012.3 |
| 20260906041512 | 22 | 190 | 0.0 | 0.0 | 0.00 | 1.27 | 0.00 | 98 | 1012.4 |
| 20260906040010 | 22 | 190 | 0.0 | 0.0 | 0.00 | 1.27 | 0.00 | 98 | 1012.4 |
| 20260906034509 | 22 | 190 | 0.0 | 0.0 | 0.00 | 1.27 | 1.27 | 98 | 1012.4 |
| 20260906033018 | 22 | 190 | 0.0 | 0.0 | 0.00 | 1.27 | 1.27 | 98 | 1012.5 |
| 20260906031506 | 23 | 190 | 0.0 | 0.0 | 0.00 | 1.27 | 1.27 | 98 | 1012.4 |
| 20260906030008 | 23 | 190 | 0.0 | 0.0 | 0.00 | 1.27 | 1.27 | 98 | 1012.5 |
| 20260906024604 | 23 | 190 | 0.0 | 0.0 | 0.00 | 1.27 | 1.27 | 98 | 1012.4 |
| 20260906023004 | 23 | 190 | 0.0 | 0.0 | 0.00 | 1.27 | 1.27 | 98 | 1012.4 |
| 20260906021504 | 23 | 190 | 0.0 | 0.0 | 0.00 | 1.27 | 1.27 | 98 | 1012.2 |
| 20260906020009 | 23 | 190 | 0.0 | 0.0 | 0.00 | 1.27 | 1.27 | 98 | 1011.9 |
| 20260906014504 | 23 | 190 | 0.0 | 0.0 | 0.00 | 1.27 | 1.27 | 98 | 1012.1 |
| 20260906013002 | 23 | 190 | 0.0 | 0.0 | 0.00 | 1.27 | 1.27 | 98 | 1012.1 |
| 20260906011501 | 23 | 190 | 0.0 | 0.0 | 0.00 | 1.27 | 1.27 | 98 | 1012.1 |
| 20260906010001 | 23 | 190 | 0.0 | 0.0 | 0.00 | 1.27 | 1.27 | 98 | 1011.8 |
| 20260906004610 | 23 | 190 | 0.0 | 0.0 | 0.00 | 1.27 | 1.27 | 98 | 1011.7 |
| 20260906003104 | 23 | 190 | 0.0 | 0.0 | 0.00 | 1.27 | 1.27 | 98 | 1011.6 |
| 20260906001559 | 23 | 190 | 0.0 | 0.0 | 0.00 | 1.27 | 1.27 | 98 | 1011.4 |
| 20260906000100 | 23 | 190 | 0.0 | 0.0 | 0.00 | 1.27 | 1.27 | 98 | 1011.0 |
| 20260905234558 | 24 | 190 | 0.0 | 0.0 | 0.00 | 1.27 | 1.27 | 97 | 1010.8 |
| 20260905233058 | 24 | 190 | 0.0 | 0.0 | 0.00 | 1.27 | 1.27 | 97 | 1010.6 |
| 20260905231556 | 24 | 190 | 0.0 | 0.0 | 0.00 | 1.27 | 1.27 | 98 | 1010.5 |
| 20260905230057 | 24 | 190 | 0.0 | 0.0 | 0.00 | 1.27 | 1.27 | 97 | 1010.3 |
| 20260905224556 | 24 | 190 | 0.0 | 0.0 | 0.00 | 1.27 | 1.27 | 98 | 1010.0 |
| 20260905223056 | 24 | 190 | 0.0 | 0.0 | 0.00 | 1.27 | 1.27 | 98 | 1010.1 |
| 20260905221555 | 24 | 190 | 0.0 | 0.0 | 0.00 | 1.27 | 1.27 | 97 | 1010.6 |
| 20260905220056 | 24 | 190 | 0.0 | 1.6 | 0.00 | 1.27 | 1.27 | 97 | 1010.4 |
| 20260905214554 | 23 | 190 | 0.0 | 0.0 | 0.00 | 1.27 | 1.27 | 97 | 1010.1 |
| 20260905213054 | 23 | 190 | 0.0 | 0.0 | 0.00 | 1.27 | 1.27 | 97 | 1010.0 |
| 20260905211553 | 23 | 190 | 0.0 | 0.0 | 0.00 | 1.27 | 1.27 | 96 | 1009.9 |
| 20260905210105 | 23 | 190 | 0.0 | 0.0 | 0.00 | 1.27 | 1.27 | 97 | 1010.0 |
| 20260905204558 | 23 | 190 | 0.0 | 0.0 | 0.00 | 1.27 | 1.27 | 96 | 1010.1 |
| 20260905203051 | 23 | 190 | 0.0 | 0.0 | 0.33 | 1.27 | 1.27 | 96 | 1009.8 |
| 20260905201550 | 23 | 190 | 0.0 | 0.0 | 1.27 | 1.27 | 1.27 | 95 | 1009.8 |
| 20260905200049 | 23 | 190 | 0.0 | 0.0 | 1.27 | 1.27 | 1.27 | 94 | 1010.4 |
| 20260905194556 | 24 | 190 | 0.0 | 3.2 | 1.27 | 1.27 | 1.27 | 90 | 1011.2 |
| 20260905193048 | 27 | 190 | 3.2 | 9.7 | 0.91 | 0.91 | 0.91 | 79 | 1012.2 |
| 20260905191550 | 32 | 190 | 0.0 | 4.8 | 0.00 | 0.00 | 0.00 | 65 | 1010.3 |
| 20260905190046 | 34 | 190 | 0.0 | 0.0 | 0.00 | 0.00 | 0.00 | 59 | 1009.9 |
| 20260905184606 | 35 | 190 | 0.0 | 1.6 | 0.00 | 0.00 | 0.00 | 57 | 1009.5 |
| 20260905183048 | 36 | 190 | 0.0 | 3.2 | 0.00 | 0.00 | 0.00 | 55 | 1009.8 |
| 20260905181552 | 36 | 190 | 0.0 | 3.2 | 0.00 | 0.00 | 0.00 | 55 | 1009.8 |
| 20260905180040 | 36 | 190 | 1.6 | 8.0 | 0.00 | 0.00 | 0.00 | 54 | 1010.4 |
| 20260905174535 | 36 | 190 | 0.0 | 3.2 | 0.00 | 0.00 | 0.00 | 55 | 1010.7 |
| 20260905173034 | 36 | 190 | 0.0 | 3.2 | 0.00 | 0.00 | 0.00 | 55 | 1011.2 |
| 20260905171531 | 35 | 190 | 0.0 | 3.2 | 0.00 | 0.00 | 0.00 | 55 | 1011.5 |
| 20260905170029 | 36 | 190 | 0.0 | 1.6 | 0.00 | 0.00 | 0.00 | 56 | 1011.7 |
| 20260905164526 | 35 | 190 | 0.0 | 3.2 | 0.00 | 0.00 | 0.00 | 59 | 1012.0 |
| 20260905163024 | 35 | 190 | 1.6 | 4.8 | 0.00 | 0.00 | 0.00 | 59 | 1012.2 |
| 20260905161521 | 34 | 190 | 0.0 | 4.8 | 0.00 | 0.00 | 0.00 | 62 | 1012.2 |
| 20260905160025 | 33 | 190 | 0.0 | 1.6 | 0.00 | 0.00 | 0.00 | 64 | 1012.3 |
| 20260905154512 | 32 | 190 | 0.0 | 3.2 | 0.00 | 0.00 | 0.00 | 65 | 1012.6 |
| 20260905153009 | 31 | 190 | 0.0 | 3.2 | 0.00 | 0.00 | 0.00 | 67 | 1012.8 |
| 20260905151615 | 31 | 190 | 0.0 | 6.4 | 0.00 | 0.00 | 0.00 | 71 | 1013.1 |
| 20260905150100 | 30 | 190 | 0.0 | 4.8 | 0.00 | 0.00 | 0.00 | 74 | 1013.0 |
| 20260905144555 | 29 | 190 | 0.0 | 1.6 | 0.00 | 0.00 | 0.00 | 78 | 1012.9 |
| 20260905143052 | 28 | 190 | 0.0 | 1.6 | 0.00 | 0.00 | 0.00 | 80 | 1012.9 |
| 20260905141549 | 27 | 190 | 0.0 | 3.2 | 0.00 | 0.00 | 0.00 | 82 | 1012.9 |
| 20260905140047 | 26 | 190 | 0.0 | 0.0 | 0.00 | 0.00 | 0.00 | 85 | 1012.7 |
| 20260905134540 | 26 | 190 | 0.0 | 0.0 | 0.00 | 0.00 | 0.00 | 88 | 1012.8 |
| 20260905133044 | 25 | 190 | 0.0 | 3.2 | 0.00 | 0.00 | 0.00 | 89 | 1012.8 |
| 20260905131540 | 25 | 190 | 0.0 | 3.2 | 0.00 | 0.00 | 0.00 | 90 | 1012.8 |
| 20260905130035 | 24 | 190 | 0.0 | 3.2 | 0.00 | 0.00 | 0.00 | 93 | 1012.9 |
| 20260905124535 | 23 | 190 | 0.0 | 1.6 | 0.00 | 0.00 | 0.00 | 95 | 1013.0 |